createdAt,value
2022-11-26T00:00:44.283Z,50.85
2022-11-26T00:03:14.040Z,54.58
2022-11-26T00:05:45.599Z,58.80
2022-11-26T00:08:22.488Z,56.95
2022-11-26T00:10:53.994Z,56.58
2022-11-26T00:13:25.896Z,62.55
2022-11-26T00:15:55.115Z,59.50
2022-11-26T00:18:26.834Z,50.83
2022-11-26T00:21:01.049Z,64.43
2022-11-26T00:23:30.654Z,54.38
2022-11-26T00:26:02.689Z,64.78
2022-11-26T00:28:34.121Z,64.95
2022-11-26T00:31:05.644Z,69.03
2022-11-26T00:33:34.759Z,70.47
2022-11-26T00:36:08.338Z,65.88
2022-11-26T00:38:37.079Z,67.75
2022-11-26T00:41:06.501Z,58.97
2022-11-26T00:43:35.355Z,59.22
2022-11-26T00:46:04.090Z,51.60
2022-11-26T00:48:33.106Z,52.58
2022-11-26T00:51:01.836Z,53.78
2022-11-26T00:53:32.110Z,54.30
2022-11-26T00:56:00.833Z,60.22
2022-11-26T00:58:30.962Z,54.08
2022-11-26T01:01:00.891Z,62.40
2022-11-26T01:03:29.851Z,63.45
2022-11-26T01:06:00.324Z,58.95
2022-11-26T01:08:34.321Z,58.80
2022-11-26T01:11:05.067Z,59.63
2022-11-26T01:13:34.172Z,57.78
2022-11-26T01:16:08.490Z,51.85
2022-11-26T01:18:37.354Z,54.65
2022-11-26T01:21:06.132Z,54.97
2022-11-26T01:23:36.096Z,50.05
2022-11-26T01:26:06.531Z,44.28
2022-11-26T01:28:36.229Z,49.17
2022-11-26T01:31:05.032Z,51.17
2022-11-26T01:33:33.840Z,60.17
2022-11-26T01:36:02.738Z,46.45
2022-11-26T01:38:31.731Z,47.97
2022-11-26T01:41:14.245Z,53.70
2022-11-26T01:43:44.661Z,57.15
2022-11-26T01:46:17.504Z,50.65
2022-11-26T01:48:46.802Z,50.85
2022-11-26T01:51:19.815Z,54.50
2022-11-26T01:53:52.958Z,52.58
2022-11-26T01:56:29.505Z,59.35
2022-11-26T01:59:03.539Z,55.45
2022-11-26T02:01:33.987Z,61.75
2022-11-26T02:04:16.472Z,57.22
2022-11-26T02:06:50.586Z,63.20
2022-11-26T02:09:19.981Z,58.35
2022-11-26T02:11:50.851Z,55.50
2022-11-26T02:14:23.234Z,63.72
2022-11-26T02:17:17.003Z,59.50
2022-11-26T02:20:11.076Z,60.33
2022-11-26T02:23:08.172Z,48.05
2022-11-26T02:26:10.073Z,55.65
2022-11-26T02:29:00.082Z,59.10
2022-11-26T02:31:37.524Z,56.47
2022-11-26T02:34:14.606Z,59.95
2022-11-26T02:36:49.277Z,57.28
2022-11-26T02:39:20.782Z,55.28
2022-11-26T02:41:51.540Z,61.13
2022-11-26T02:44:23.202Z,63.55
2022-11-26T02:46:58.577Z,59.47
2022-11-26T02:49:28.895Z,64.50
2022-11-26T02:52:01.240Z,63.80
2022-11-26T02:54:33.425Z,69.75
2022-11-26T02:57:04.835Z,59.40
2022-11-26T02:59:34.428Z,62.92
2022-11-26T03:02:11.275Z,64.13
2022-11-26T03:04:44.577Z,66.72
2022-11-26T03:07:15.073Z,70.47
2022-11-26T03:09:51.950Z,72.22
2022-11-26T03:12:20.814Z,66.28
2022-11-26T03:14:53.118Z,64.70
2022-11-26T03:17:24.563Z,61.88
2022-11-26T03:19:54.305Z,65.32
2022-11-26T03:22:26.224Z,66.00
2022-11-26T03:24:56.320Z,67.00
2022-11-26T03:27:28.958Z,68.47
2022-11-26T03:29:58.434Z,62.10
2022-11-26T03:32:29.044Z,58.08
2022-11-26T03:35:00.404Z,60.03
2022-11-26T03:37:29.941Z,60.88
2022-11-26T03:39:59.029Z,52.78
2022-11-26T03:42:29.697Z,58.83
2022-11-26T03:44:59.256Z,65.78
2022-11-26T03:47:30.706Z,57.22
2022-11-26T03:50:00.063Z,66.53
2022-11-26T03:52:29.705Z,53.38
2022-11-26T03:54:58.705Z,62.13
2022-11-26T03:57:28.183Z,59.83
2022-11-26T03:59:58.446Z,58.75
2022-11-26T04:02:28.153Z,67.88
2022-11-26T04:04:59.033Z,63.88
2022-11-26T04:07:28.625Z,70.80
2022-11-26T04:09:58.009Z,63.63
2022-11-26T04:12:27.285Z,61.90
2022-11-26T04:14:57.756Z,62.03
2022-11-26T04:17:31.386Z,68.35
2022-11-26T04:20:03.894Z,64.10
2022-11-26T04:22:34.700Z,64.63
2022-11-26T04:25:04.267Z,58.22
2022-11-26T04:27:34.246Z,60.95
2022-11-26T04:30:05.366Z,62.72
2022-11-26T04:32:40.810Z,61.78
2022-11-26T04:35:14.780Z,57.78
2022-11-26T04:37:44.976Z,67.93
2022-11-26T04:40:15.882Z,67.80
2022-11-26T04:42:45.491Z,66.32
2022-11-26T04:45:15.069Z,58.35
2022-11-26T04:47:45.419Z,61.65
2022-11-26T04:50:16.326Z,58.47
2022-11-26T04:52:48.720Z,57.15
2022-11-26T04:55:19.725Z,57.80
2022-11-26T04:57:52.531Z,57.80
2022-11-26T05:00:23.979Z,52.05
2022-11-26T05:02:53.265Z,57.35
2022-11-26T05:05:24.321Z,55.05
2022-11-26T05:07:55.933Z,59.10
2022-11-26T05:10:25.772Z,49.83
2022-11-26T05:12:56.170Z,61.35
2022-11-26T05:15:25.858Z,61.35
2022-11-26T05:17:55.426Z,54.47
2022-11-26T05:20:26.714Z,69.22
2022-11-26T05:23:01.350Z,61.72
2022-11-26T05:25:33.969Z,70.10
2022-11-26T05:28:03.845Z,65.88
2022-11-26T05:30:37.405Z,71.63
2022-11-26T05:33:15.512Z,60.88
2022-11-26T05:35:46.749Z,58.60
2022-11-26T05:38:16.829Z,67.78
2022-11-26T05:40:46.921Z,58.35
2022-11-26T05:43:26.245Z,56.72
2022-11-26T05:45:57.014Z,63.42
2022-11-26T05:48:26.786Z,61.75
2022-11-26T05:51:05.623Z,65.15
2022-11-26T05:53:35.347Z,72.50
2022-11-26T05:56:05.454Z,60.53
2022-11-26T05:58:41.803Z,58.97
2022-11-26T06:01:13.947Z,57.20
2022-11-26T06:03:44.574Z,52.13
2022-11-26T06:06:15.507Z,59.83
2022-11-26T06:08:45.040Z,57.45
2022-11-26T06:11:21.662Z,50.80
2022-11-26T06:13:54.468Z,48.97
2022-11-26T06:16:24.060Z,55.40
2022-11-26T06:19:18.993Z,57.30
2022-11-26T06:21:55.219Z,56.70
2022-11-26T06:24:25.920Z,55.53
2022-11-26T06:26:55.526Z,56.90
2022-11-26T06:29:29.147Z,53.95
2022-11-26T06:32:03.199Z,54.92
2022-11-26T06:34:44.642Z,55.05
2022-11-26T06:37:37.267Z,47.75
2022-11-26T06:40:18.839Z,53.72
2022-11-26T06:43:06.333Z,57.65
2022-11-26T06:45:38.930Z,59.42
2022-11-26T06:48:08.862Z,53.28
2022-11-26T06:50:38.508Z,61.13
2022-11-26T06:53:10.574Z,63.08
2022-11-26T06:55:41.373Z,49.97
2022-11-26T06:58:16.007Z,55.90
2022-11-26T07:00:46.219Z,57.47
2022-11-26T07:03:27.023Z,54.78
2022-11-26T07:06:00.822Z,50.83
2022-11-26T07:08:49.850Z,56.85
2022-11-26T07:11:33.991Z,58.67
2022-11-26T07:14:11.110Z,58.40
2022-11-26T07:16:44.568Z,60.70
2022-11-26T07:19:16.797Z,57.40
2022-11-26T07:21:49.251Z,60.75
2022-11-26T07:26:52.859Z,50.33
2022-11-26T07:29:34.124Z,55.90
2022-11-26T07:32:10.354Z,52.20
2022-11-26T07:34:41.658Z,51.85
2022-11-26T07:37:13.123Z,62.63
2022-11-26T07:39:45.762Z,68.43
2022-11-26T07:42:34.245Z,67.40
2022-11-26T07:45:06.135Z,68.47
2022-11-26T07:47:50.549Z,59.17
2022-11-26T07:50:19.590Z,58.40
2022-11-26T07:52:48.502Z,53.47
2022-11-26T07:55:19.518Z,53.88
2022-11-26T07:57:48.748Z,54.20
2022-11-26T08:00:21.503Z,48.92
2022-11-26T08:02:50.287Z,49.17
2022-11-26T08:05:22.036Z,50.38
2022-11-26T08:07:52.281Z,44.42
2022-11-26T08:10:22.543Z,50.53
2022-11-26T08:12:52.289Z,48.00
2022-11-26T08:15:21.480Z,42.85
2022-11-26T08:17:50.446Z,42.38
2022-11-26T08:20:22.223Z,39.88
2022-11-26T08:22:55.494Z,43.90
2022-11-26T08:25:26.810Z,38.25
2022-11-26T08:27:56.953Z,39.78
2022-11-26T08:30:28.128Z,43.85
2022-11-26T08:32:56.800Z,47.80
2022-11-26T08:35:51.187Z,41.47
2022-11-26T08:38:20.327Z,41.45
2022-11-26T08:40:54.392Z,42.70
2022-11-26T08:43:45.068Z,43.28
2022-11-26T08:46:25.036Z,42.28
2022-11-26T08:48:53.679Z,37.80
2022-11-26T08:51:26.224Z,38.65
2022-11-26T08:53:55.077Z,37.90
2022-11-26T08:56:26.956Z,37.92
2022-11-26T08:58:55.631Z,48.90
2022-11-26T09:01:27.707Z,39.30
2022-11-26T09:03:58.891Z,42.80
2022-11-26T09:06:33.384Z,40.97
2022-11-26T09:09:15.521Z,43.85
2022-11-26T09:11:50.572Z,37.15
2022-11-26T09:14:25.160Z,40.72
2022-11-26T09:16:58.655Z,41.63
2022-11-26T09:19:28.749Z,41.22
2022-11-26T09:21:57.741Z,42.67
2022-11-26T09:24:28.509Z,43.22
2022-11-26T09:27:07.256Z,42.65
2022-11-26T09:29:44.657Z,41.97
2022-11-26T09:32:24.266Z,41.85
2022-11-26T09:35:03.422Z,38.38
2022-11-26T09:37:39.039Z,42.45
2022-11-26T09:40:09.202Z,44.88
2022-11-26T09:42:50.951Z,46.60
2022-11-26T09:45:34.727Z,38.55
2022-11-26T09:48:05.591Z,47.53
2022-11-26T09:50:36.167Z,46.67
2022-11-26T09:53:15.440Z,47.13
2022-11-26T09:55:52.378Z,45.72
2022-11-26T09:58:29.465Z,42.97
2022-11-26T10:01:02.444Z,45.72
2022-11-26T10:03:36.508Z,49.95
2022-11-26T10:06:11.706Z,44.03
2022-11-26T10:09:05.080Z,47.08
2022-11-26T10:11:42.441Z,41.50
2022-11-26T10:14:29.469Z,46.13
2022-11-26T10:17:14.101Z,42.40
2022-11-26T10:19:53.499Z,40.63
2022-11-26T10:22:27.324Z,43.60
2022-11-26T10:25:03.999Z,37.50
2022-11-26T10:27:36.654Z,48.97
2022-11-26T10:30:19.130Z,40.53
2022-11-26T10:32:50.156Z,40.50
2022-11-26T10:35:24.062Z,46.83
2022-11-26T10:38:00.928Z,44.05
2022-11-26T10:40:32.323Z,40.17
2022-11-26T10:43:13.534Z,36.72
2022-11-26T10:45:47.064Z,41.28
2022-11-26T10:48:21.860Z,46.58
2022-11-26T10:51:02.442Z,43.10
2022-11-26T10:53:36.300Z,42.83
2022-11-26T10:56:08.627Z,44.72
2022-11-26T10:58:43.331Z,40.22
2022-11-26T11:01:15.475Z,41.92
2022-11-26T11:04:09.202Z,47.05
2022-11-26T11:06:45.021Z,44.55
2022-11-26T11:09:33.041Z,42.63
2022-11-26T11:12:35.076Z,50.53
2022-11-26T11:15:29.239Z,45.05
2022-11-26T11:18:05.969Z,43.25
2022-11-26T11:20:39.306Z,48.90
2022-11-26T11:23:20.535Z,45.65
2022-11-26T11:26:06.311Z,43.78
2022-11-26T11:28:42.800Z,54.83
2022-11-26T11:31:14.471Z,52.33
2022-11-26T11:33:46.940Z,49.45
2022-11-26T11:36:36.339Z,51.65
2022-11-26T11:39:08.455Z,54.17
2022-11-26T11:44:18.441Z,53.50
2022-11-26T11:47:13.598Z,60.53
2022-11-26T11:50:00.596Z,57.58
2022-11-26T11:52:40.348Z,59.33
2022-11-26T11:55:20.045Z,48.20
2022-11-26T11:58:14.913Z,54.70
2022-11-26T12:00:53.014Z,50.60
2022-11-26T12:03:53.610Z,53.78
2022-11-26T12:06:36.977Z,49.35
2022-11-26T12:09:17.441Z,55.45
2022-11-26T12:11:55.187Z,52.17
2022-11-26T12:14:30.908Z,52.95
2022-11-26T12:17:06.388Z,55.97
2022-11-26T12:19:40.972Z,45.95
2022-11-26T12:22:20.598Z,52.40
2022-11-26T12:24:54.903Z,53.72
2022-11-26T12:27:32.057Z,51.33
2022-11-26T12:30:05.159Z,55.92
2022-11-26T12:32:40.239Z,48.67
2022-11-26T12:35:16.238Z,49.63
2022-11-26T12:37:51.800Z,47.88
2022-11-26T12:40:31.712Z,46.05
2022-11-26T12:43:07.998Z,43.10
2022-11-26T12:45:50.583Z,47.40
2022-11-26T12:48:37.733Z,48.53
2022-11-26T12:51:20.966Z,48.95
2022-11-26T12:53:59.063Z,44.63
2022-11-26T12:56:34.957Z,53.72
2022-11-26T12:59:07.835Z,46.05
2022-11-26T13:01:39.880Z,49.63
2022-11-26T13:07:15.587Z,47.67
2022-11-26T13:09:59.272Z,42.65
2022-11-26T13:12:39.890Z,44.55
2022-11-26T13:15:19.544Z,44.35
2022-11-26T13:17:50.850Z,46.22
2022-11-26T13:20:35.651Z,39.88
2022-11-26T13:23:37.061Z,38.53
2022-11-26T13:26:47.065Z,41.35
2022-11-26T13:29:48.208Z,32.83
2022-11-26T13:32:44.085Z,44.35
2022-11-26T13:35:25.374Z,31.98
2022-11-26T13:38:12.063Z,35.38
2022-11-26T13:41:07.829Z,27.52
2022-11-26T13:44:02.418Z,26.42
2022-11-26T13:46:36.017Z,31.40
2022-11-26T13:49:09.181Z,33.90
2022-11-26T13:51:44.159Z,34.35
2022-11-26T13:54:16.693Z,27.52
2022-11-26T13:56:50.564Z,27.98
2022-11-26T13:59:40.330Z,26.58
2022-11-26T14:02:47.662Z,26.45
2022-11-26T14:05:18.733Z,28.80
2022-11-26T14:07:58.669Z,26.27
2022-11-26T14:10:44.927Z,29.38
2022-11-26T14:13:17.955Z,31.75
2022-11-26T14:15:58.083Z,30.02
2022-11-26T14:19:07.766Z,38.17
2022-11-26T14:22:03.942Z,40.47
2022-11-26T14:24:55.701Z,37.28
2022-11-26T14:27:26.481Z,36.13
2022-11-26T14:30:04.647Z,37.28
2022-11-26T14:32:43.366Z,36.53
2022-11-26T14:35:34.023Z,43.90
2022-11-26T14:38:05.462Z,42.67
2022-11-26T14:40:36.206Z,49.40
2022-11-26T14:45:41.387Z,47.85
2022-11-26T14:48:27.995Z,42.78
2022-11-26T14:51:00.945Z,42.90
2022-11-26T14:53:34.159Z,35.80
2022-11-26T14:56:05.675Z,37.58
2022-11-26T14:58:38.008Z,35.00
2022-11-26T15:01:20.996Z,38.35
2022-11-26T15:04:03.750Z,37.53
2022-11-26T15:06:38.386Z,34.72
2022-11-26T15:09:11.551Z,40.05
2022-11-26T15:11:44.123Z,33.05
2022-11-26T15:14:21.795Z,37.03
2022-11-26T15:16:57.744Z,40.13
2022-11-26T15:19:31.817Z,43.25
2022-11-26T15:22:07.432Z,45.92
2022-11-26T15:24:39.026Z,39.65
2022-11-26T15:27:32.412Z,36.42
2022-11-26T15:30:01.086Z,47.13
2022-11-26T15:32:31.465Z,38.75
2022-11-26T15:35:04.483Z,40.45
2022-11-26T15:37:34.031Z,41.13
2022-11-26T15:40:11.397Z,47.60
2022-11-26T15:42:40.776Z,45.42
2022-11-26T15:45:16.411Z,45.42
2022-11-26T15:47:49.613Z,43.22
2022-11-26T15:50:27.727Z,40.53
2022-11-26T15:53:01.614Z,40.97
2022-11-26T15:55:35.085Z,39.20
2022-11-26T15:58:11.281Z,41.40
2022-11-26T16:00:43.967Z,45.33
2022-11-26T16:03:35.075Z,44.53
2022-11-26T16:06:08.789Z,49.83
2022-11-26T16:08:38.995Z,41.17
2022-11-26T16:11:09.935Z,44.13
2022-11-26T16:13:41.996Z,44.47
2022-11-26T16:16:18.840Z,48.28
2022-11-26T16:18:54.205Z,42.97
2022-11-26T16:21:28.389Z,39.70
2022-11-26T16:24:00.895Z,44.83
2022-11-26T16:26:30.527Z,40.60
2022-11-26T16:29:02.276Z,38.13
2022-11-26T16:34:00.096Z,42.13
2022-11-26T16:36:35.101Z,35.80
2022-11-26T16:39:03.773Z,42.72
2022-11-26T16:41:34.306Z,37.42
2022-11-26T16:44:03.755Z,38.70
2022-11-26T16:46:32.792Z,35.10
2022-11-26T16:49:01.567Z,37.25
2022-11-26T16:51:32.488Z,38.25
2022-11-26T16:54:02.080Z,39.33
2022-11-26T16:56:37.470Z,35.45
2022-11-26T16:59:07.469Z,36.72
2022-11-26T17:01:36.238Z,35.28
2022-11-26T17:04:05.772Z,32.88
2022-11-26T17:06:36.035Z,40.92
2022-11-26T17:09:05.760Z,43.50
2022-11-26T17:11:35.377Z,39.28
2022-11-26T17:14:04.176Z,39.90
2022-11-26T17:16:32.807Z,40.25
2022-11-26T17:19:01.361Z,37.40
2022-11-26T17:21:30.386Z,36.30
2022-11-26T17:24:00.493Z,40.55
2022-11-26T17:26:29.196Z,41.65
2022-11-26T17:28:57.649Z,39.60
2022-11-26T17:31:31.135Z,35.03
2022-11-26T17:34:00.592Z,35.72
2022-11-26T17:36:36.665Z,45.78
2022-11-26T17:39:07.515Z,42.13
2022-11-26T17:41:37.238Z,38.22
2022-11-26T17:44:06.205Z,43.17
2022-11-26T17:46:42.987Z,37.53
2022-11-26T17:49:24.237Z,35.17
2022-11-26T17:51:55.355Z,34.75
2022-11-26T17:54:25.215Z,38.45
2022-11-26T17:56:54.124Z,40.78
2022-11-26T17:59:24.019Z,46.97
2022-11-26T18:01:53.058Z,47.40
2022-11-26T18:04:22.038Z,44.70
2022-11-26T18:06:58.535Z,46.28
2022-11-26T18:09:30.092Z,42.13
2022-11-26T18:11:58.859Z,40.05
2022-11-26T18:14:27.843Z,33.58
2022-11-26T18:16:56.927Z,34.28
2022-11-26T18:19:25.829Z,34.17
2022-11-26T18:21:55.004Z,34.67
2022-11-26T18:24:23.812Z,36.67
2022-11-26T18:26:56.856Z,34.58
2022-11-26T18:31:54.513Z,38.70
2022-11-26T18:34:25.583Z,32.60
2022-11-26T18:36:54.500Z,38.63
2022-11-26T18:39:23.316Z,34.38
2022-11-26T18:42:00.732Z,34.35
2022-11-26T18:44:44.119Z,33.38
2022-11-26T18:47:13.790Z,37.58
2022-11-26T18:49:47.265Z,32.83
2022-11-26T18:52:16.488Z,34.85
2022-11-26T18:54:48.311Z,34.78
2022-11-26T18:59:47.628Z,39.13
2022-11-26T19:02:16.226Z,38.85
2022-11-26T19:04:45.391Z,38.20
2022-11-26T19:07:15.959Z,40.55
2022-11-26T19:09:44.748Z,40.35
2022-11-26T19:12:14.811Z,39.63
2022-11-26T19:14:43.461Z,39.97
2022-11-26T19:17:13.647Z,35.55
2022-11-26T19:19:43.150Z,37.43
2022-11-26T19:22:11.723Z,36.92
2022-11-26T19:24:40.719Z,37.70
2022-11-26T19:27:10.519Z,42.95
2022-11-26T19:29:40.111Z,40.15
2022-11-26T19:32:09.075Z,41.28
2022-11-26T19:34:40.469Z,41.25
2022-11-26T19:37:09.507Z,35.10
2022-11-26T19:39:38.593Z,37.08
2022-11-26T19:42:11.021Z,41.28
2022-11-26T19:44:39.985Z,38.20
2022-11-26T19:47:08.653Z,34.45
2022-11-26T19:49:39.326Z,36.33
2022-11-26T19:52:08.682Z,33.78
2022-11-26T19:54:37.812Z,32.63
2022-11-26T19:57:07.370Z,32.95
2022-11-26T19:59:36.885Z,39.45
2022-11-26T20:02:05.923Z,35.85
2022-11-26T20:04:34.715Z,39.92
2022-11-26T20:07:05.826Z,31.70
2022-11-26T20:09:35.268Z,31.35
2022-11-26T20:12:04.277Z,32.00
2022-11-26T20:14:33.474Z,33.63
2022-11-26T20:17:02.975Z,28.23
2022-11-26T20:19:32.438Z,32.33
2022-11-26T20:22:01.189Z,37.03
2022-11-26T20:24:31.587Z,35.30
2022-11-26T20:27:00.310Z,37.17
2022-11-26T20:29:28.894Z,31.00
2022-11-26T20:31:57.878Z,36.22
2022-11-26T20:34:28.052Z,33.00
2022-11-26T20:36:57.574Z,30.83
2022-11-26T20:39:26.421Z,27.63
2022-11-26T20:41:56.637Z,28.92
2022-11-26T20:44:27.075Z,26.83
2022-11-26T20:46:57.628Z,26.00
2022-11-26T20:49:30.810Z,34.85
2022-11-26T20:52:02.406Z,29.25
2022-11-26T20:54:31.643Z,29.13
2022-11-26T20:57:02.866Z,24.90
2022-11-26T20:59:31.577Z,28.27
2022-11-26T21:02:01.996Z,28.30
2022-11-26T21:04:31.459Z,33.08
2022-11-26T21:07:00.178Z,31.38
2022-11-26T21:09:28.893Z,31.73
2022-11-26T21:11:58.279Z,32.78
2022-11-26T21:14:29.812Z,30.00
2022-11-26T21:16:58.678Z,32.17
2022-11-26T21:19:27.662Z,33.05
2022-11-26T21:21:57.255Z,35.45
2022-11-26T21:24:26.215Z,35.55
2022-11-26T21:26:55.232Z,33.20
2022-11-26T21:29:24.000Z,37.08
2022-11-26T21:31:54.573Z,33.30
2022-11-26T21:34:24.068Z,35.33
2022-11-26T21:36:53.402Z,36.03
2022-11-26T21:39:22.707Z,33.22
2022-11-26T21:41:53.016Z,34.20
2022-11-26T21:44:22.127Z,37.17
2022-11-26T21:46:51.244Z,37.40
2022-11-26T21:49:21.478Z,43.88
2022-11-26T21:51:50.700Z,31.25
2022-11-26T21:54:19.544Z,38.60
2022-11-26T21:56:48.577Z,36.33
2022-11-26T21:59:18.105Z,38.22
2022-11-26T22:01:47.695Z,40.85
2022-11-26T22:04:18.519Z,35.72
2022-11-26T22:06:50.437Z,35.58
2022-11-26T22:11:48.746Z,37.92
2022-11-26T22:14:18.866Z,40.35
2022-11-26T22:16:48.661Z,42.90
2022-11-26T22:19:17.807Z,40.13
2022-11-26T22:21:48.601Z,49.13
2022-11-26T22:24:18.423Z,36.60
2022-11-26T22:26:47.761Z,39.70
2022-11-26T22:29:17.899Z,47.80
2022-11-26T22:31:48.475Z,43.25
2022-11-26T22:34:19.096Z,48.85
2022-11-26T22:36:49.662Z,44.92
2022-11-26T22:39:20.283Z,42.50
2022-11-26T22:41:50.578Z,52.42
2022-11-26T22:44:19.957Z,54.60
2022-11-26T22:46:48.839Z,46.70
2022-11-26T22:49:19.621Z,51.88
2022-11-26T22:51:50.013Z,50.07
2022-11-26T22:54:19.681Z,47.63
2022-11-26T22:56:48.906Z,58.00
2022-11-26T22:59:17.325Z,47.85
2022-11-26T23:01:46.223Z,67.32
2022-11-26T23:04:15.356Z,62.65
2022-11-26T23:06:44.364Z,63.53
2022-11-26T23:09:14.750Z,64.07
2022-11-26T23:11:44.032Z,60.53
2022-11-26T23:14:13.274Z,67.07
2022-11-26T23:16:43.909Z,61.70
2022-11-26T23:19:19.789Z,60.03
2022-11-26T23:21:50.044Z,66.10
2022-11-26T23:24:21.163Z,64.88
2022-11-26T23:26:50.320Z,64.53
2022-11-26T23:29:19.294Z,51.08
2022-11-26T23:31:48.515Z,51.40
2022-11-26T23:34:17.797Z,60.15
2022-11-26T23:36:46.695Z,69.30
2022-11-26T23:39:16.477Z,62.08
2022-11-26T23:41:46.689Z,66.55
2022-11-26T23:44:15.942Z,61.90
2022-11-26T23:46:45.373Z,61.97
2022-11-26T23:49:14.242Z,56.05
2022-11-26T23:51:43.084Z,63.45
2022-11-26T23:54:11.707Z,62.25
2022-11-26T23:56:44.919Z,57.58
2022-11-26T23:59:16.169Z,57.33
